sensor_id;sensor_type;location;lat;lon;timestamp;P1;durP1;ratioP1;P2;durP2;ratioP2
840;SDS011;406;48.566;13.450;2023-12-28T00:00:55;47.97;;;14.80;;
840;SDS011;406;48.566;13.450;2023-12-28T00:03:22;62.97;;;19.50;;
840;SDS011;406;48.566;13.450;2023-12-28T00:05:48;291.65;;;49.30;;
840;SDS011;406;48.566;13.450;2023-12-28T00:08:15;225.75;;;36.50;;
840;SDS011;406;48.566;13.450;2023-12-28T00:10:42;65.27;;;16.70;;
840;SDS011;406;48.566;13.450;2023-12-28T00:13:08;44.50;;;14.43;;
840;SDS011;406;48.566;13.450;2023-12-28T00:15:35;41.43;;;13.83;;
840;SDS011;406;48.566;13.450;2023-12-28T00:18:01;75.50;;;16.48;;
840;SDS011;406;48.566;13.450;2023-12-28T00:20:28;202.90;;;32.78;;
840;SDS011;406;48.566;13.450;2023-12-28T00:22:55;316.45;;;34.15;;
840;SDS011;406;48.566;13.450;2023-12-28T00:25:21;209.93;;;32.42;;
840;SDS011;406;48.566;13.450;2023-12-28T00:27:48;98.65;;;17.15;;
840;SDS011;406;48.566;13.450;2023-12-28T00:30:15;124.57;;;20.10;;
840;SDS011;406;48.566;13.450;2023-12-28T00:32:43;59.17;;;15.18;;
840;SDS011;406;48.566;13.450;2023-12-28T00:35:12;88.07;;;17.75;;
840;SDS011;406;48.566;13.450;2023-12-28T00:37:39;186.35;;;25.63;;
840;SDS011;406;48.566;13.450;2023-12-28T00:40:06;115.78;;;18.98;;
840;SDS011;406;48.566;13.450;2023-12-28T00:42:32;159.50;;;28.20;;
840;SDS011;406;48.566;13.450;2023-12-28T00:45:00;164.82;;;28.25;;
840;SDS011;406;48.566;13.450;2023-12-28T00:47:26;61.63;;;15.90;;
840;SDS011;406;48.566;13.450;2023-12-28T00:49:53;22.95;;;10.80;;
840;SDS011;406;48.566;13.450;2023-12-28T00:52:20;20.23;;;10.77;;
840;SDS011;406;48.566;13.450;2023-12-28T00:54:46;23.23;;;10.60;;
840;SDS011;406;48.566;13.450;2023-12-28T00:57:13;15.05;;;10.70;;
840;SDS011;406;48.566;13.450;2023-12-28T00:59:39;51.28;;;12.73;;
840;SDS011;406;48.566;13.450;2023-12-28T01:02:06;54.65;;;13.70;;
840;SDS011;406;48.566;13.450;2023-12-28T01:04:32;32.85;;;12.02;;
840;SDS011;406;48.566;13.450;2023-12-28T01:06:59;96.80;;;22.00;;
840;SDS011;406;48.566;13.450;2023-12-28T01:09:28;77.60;;;17.00;;
840;SDS011;406;48.566;13.450;2023-12-28T01:11:55;203.45;;;27.08;;
840;SDS011;406;48.566;13.450;2023-12-28T01:14:21;76.03;;;14.00;;
840;SDS011;406;48.566;13.450;2023-12-28T01:16:48;115.97;;;20.80;;
840;SDS011;406;48.566;13.450;2023-12-28T01:19:14;129.38;;;17.85;;
840;SDS011;406;48.566;13.450;2023-12-28T01:21:41;63.75;;;13.80;;
840;SDS011;406;48.566;13.450;2023-12-28T01:24:08;54.45;;;13.68;;
840;SDS011;406;48.566;13.450;2023-12-28T01:26:34;110.93;;;21.83;;
840;SDS011;406;48.566;13.450;2023-12-28T01:29:01;69.50;;;14.43;;
840;SDS011;406;48.566;13.450;2023-12-28T01:31:29;43.25;;;12.13;;
840;SDS011;406;48.566;13.450;2023-12-28T01:33:56;202.10;;;31.83;;
840;SDS011;406;48.566;13.450;2023-12-28T01:36:23;40.47;;;12.13;;
840;SDS011;406;48.566;13.450;2023-12-28T01:38:49;157.15;;;27.25;;
840;SDS011;406;48.566;13.450;2023-12-28T01:41:16;95.00;;;20.38;;
840;SDS011;406;48.566;13.450;2023-12-28T01:43:42;59.33;;;12.90;;
840;SDS011;406;48.566;13.450;2023-12-28T01:46:12;67.30;;;15.02;;
840;SDS011;406;48.566;13.450;2023-12-28T01:48:42;49.35;;;12.30;;
840;SDS011;406;48.566;13.450;2023-12-28T01:51:09;90.43;;;17.88;;
840;SDS011;406;48.566;13.450;2023-12-28T01:53:38;37.28;;;10.85;;
840;SDS011;406;48.566;13.450;2023-12-28T01:56:04;28.98;;;10.60;;
840;SDS011;406;48.566;13.450;2023-12-28T01:58:32;17.95;;;9.27;;
840;SDS011;406;48.566;13.450;2023-12-28T02:00:59;72.93;;;17.45;;
840;SDS011;406;48.566;13.450;2023-12-28T02:03:27;27.25;;;10.80;;
840;SDS011;406;48.566;13.450;2023-12-28T02:05:54;134.77;;;23.00;;
840;SDS011;406;48.566;13.450;2023-12-28T02:08:21;88.90;;;15.40;;
840;SDS011;406;48.566;13.450;2023-12-28T02:10:48;79.85;;;15.48;;
840;SDS011;406;48.566;13.450;2023-12-28T02:13:14;92.10;;;18.55;;
840;SDS011;406;48.566;13.450;2023-12-28T02:15:41;266.33;;;33.13;;
840;SDS011;406;48.566;13.450;2023-12-28T02:18:10;165.60;;;22.27;;
840;SDS011;406;48.566;13.450;2023-12-28T02:20:41;137.53;;;20.63;;
840;SDS011;406;48.566;13.450;2023-12-28T02:23:09;117.63;;;21.60;;
840;SDS011;406;48.566;13.450;2023-12-28T02:25:36;140.93;;;18.33;;
840;SDS011;406;48.566;13.450;2023-12-28T02:28:03;99.80;;;19.02;;
840;SDS011;406;48.566;13.450;2023-12-28T02:30:30;91.22;;;17.75;;
840;SDS011;406;48.566;13.450;2023-12-28T02:35:47;97.15;;;18.27;;
840;SDS011;406;48.566;13.450;2023-12-28T02:38:21;112.18;;;17.20;;
840;SDS011;406;48.566;13.450;2023-12-28T02:40:50;185.73;;;31.90;;
840;SDS011;406;48.566;13.450;2023-12-28T02:43:17;67.95;;;14.50;;
840;SDS011;406;48.566;13.450;2023-12-28T02:45:43;142.65;;;21.42;;
840;SDS011;406;48.566;13.450;2023-12-28T02:48:10;34.58;;;9.73;;
840;SDS011;406;48.566;13.450;2023-12-28T02:50:37;16.92;;;8.43;;
840;SDS011;406;48.566;13.450;2023-12-28T02:53:04;31.57;;;9.53;;
840;SDS011;406;48.566;13.450;2023-12-28T02:55:30;81.95;;;14.32;;
840;SDS011;406;48.566;13.450;2023-12-28T02:57:57;162.57;;;19.40;;
840;SDS011;406;48.566;13.450;2023-12-28T03:00:28;58.28;;;12.68;;
840;SDS011;406;48.566;13.450;2023-12-28T03:02:55;128.80;;;23.80;;
840;SDS011;406;48.566;13.450;2023-12-28T03:05:22;76.40;;;15.30;;
840;SDS011;406;48.566;13.450;2023-12-28T03:07:49;140.30;;;18.33;;
840;SDS011;406;48.566;13.450;2023-12-28T03:10:17;74.30;;;12.93;;
840;SDS011;406;48.566;13.450;2023-12-28T03:12:43;70.25;;;14.65;;
840;SDS011;406;48.566;13.450;2023-12-28T03:15:10;53.55;;;11.55;;
840;SDS011;406;48.566;13.450;2023-12-28T03:17:37;53.43;;;10.83;;
840;SDS011;406;48.566;13.450;2023-12-28T03:20:04;62.13;;;12.48;;
840;SDS011;406;48.566;13.450;2023-12-28T03:22:32;47.53;;;12.35;;
840;SDS011;406;48.566;13.450;2023-12-28T03:24:58;194.30;;;27.50;;
840;SDS011;406;48.566;13.450;2023-12-28T03:27:25;85.10;;;16.67;;
840;SDS011;406;48.566;13.450;2023-12-28T03:29:54;157.43;;;20.90;;
840;SDS011;406;48.566;13.450;2023-12-28T03:32:20;82.93;;;13.70;;
840;SDS011;406;48.566;13.450;2023-12-28T03:34:48;40.00;;;9.27;;
840;SDS011;406;48.566;13.450;2023-12-28T03:37:15;53.72;;;11.50;;
840;SDS011;406;48.566;13.450;2023-12-28T03:39:41;59.20;;;14.98;;
840;SDS011;406;48.566;13.450;2023-12-28T03:42:08;57.30;;;11.05;;
840;SDS011;406;48.566;13.450;2023-12-28T03:44:34;121.70;;;21.70;;
840;SDS011;406;48.566;13.450;2023-12-28T03:47:01;98.25;;;16.08;;
840;SDS011;406;48.566;13.450;2023-12-28T03:49:27;65.65;;;15.65;;
840;SDS011;406;48.566;13.450;2023-12-28T03:51:54;30.73;;;9.15;;
840;SDS011;406;48.566;13.450;2023-12-28T03:54:21;79.93;;;14.23;;
840;SDS011;406;48.566;13.450;2023-12-28T03:56:47;57.45;;;12.80;;
840;SDS011;406;48.566;13.450;2023-12-28T03:59:14;189.33;;;27.93;;
840;SDS011;406;48.566;13.450;2023-12-28T04:01:44;59.20;;;11.80;;
840;SDS011;406;48.566;13.450;2023-12-28T04:04:11;36.50;;;10.88;;
840;SDS011;406;48.566;13.450;2023-12-28T04:06:38;113.00;;;16.50;;
840;SDS011;406;48.566;13.450;2023-12-28T04:09:05;43.67;;;11.85;;
840;SDS011;406;48.566;13.450;2023-12-28T04:11:31;79.45;;;14.95;;
840;SDS011;406;48.566;13.450;2023-12-28T04:13:58;117.13;;;18.13;;
840;SDS011;406;48.566;13.450;2023-12-28T04:16:25;37.55;;;11.05;;
840;SDS011;406;48.566;13.450;2023-12-28T04:18:51;59.33;;;14.63;;
840;SDS011;406;48.566;13.450;2023-12-28T04:21:18;356.42;;;50.88;;
840;SDS011;406;48.566;13.450;2023-12-28T04:23:45;68.20;;;15.52;;
840;SDS011;406;48.566;13.450;2023-12-28T04:26:11;87.75;;;18.33;;
840;SDS011;406;48.566;13.450;2023-12-28T04:28:38;177.43;;;30.58;;
840;SDS011;406;48.566;13.450;2023-12-28T04:31:05;288.20;;;39.25;;
840;SDS011;406;48.566;13.450;2023-12-28T04:33:33;96.93;;;18.43;;
840;SDS011;406;48.566;13.450;2023-12-28T04:36:04;190.55;;;24.83;;
840;SDS011;406;48.566;13.450;2023-12-28T04:38:31;80.72;;;16.95;;
840;SDS011;406;48.566;13.450;2023-12-28T04:40:59;93.50;;;15.13;;
840;SDS011;406;48.566;13.450;2023-12-28T04:43:26;49.05;;;12.25;;
840;SDS011;406;48.566;13.450;2023-12-28T04:45:53;51.60;;;10.45;;
840;SDS011;406;48.566;13.450;2023-12-28T04:48:19;117.00;;;18.63;;
840;SDS011;406;48.566;13.450;2023-12-28T04:50:48;193.95;;;29.00;;
840;SDS011;406;48.566;13.450;2023-12-28T04:53:14;64.85;;;12.80;;
840;SDS011;406;48.566;13.450;2023-12-28T04:55:41;76.45;;;11.68;;
840;SDS011;406;48.566;13.450;2023-12-28T04:58:09;56.85;;;11.50;;
840;SDS011;406;48.566;13.450;2023-12-28T05:00:37;94.38;;;16.98;;
840;SDS011;406;48.566;13.450;2023-12-28T05:03:04;50.45;;;12.02;;
840;SDS011;406;48.566;13.450;2023-12-28T05:05:31;34.47;;;8.88;;
840;SDS011;406;48.566;13.450;2023-12-28T05:07:58;89.93;;;16.52;;
840;SDS011;406;48.566;13.450;2023-12-28T05:10:24;105.30;;;16.92;;
840;SDS011;406;48.566;13.450;2023-12-28T05:12:51;51.17;;;10.95;;
840;SDS011;406;48.566;13.450;2023-12-28T05:15:18;105.57;;;17.48;;
840;SDS011;406;48.566;13.450;2023-12-28T05:17:46;94.80;;;17.48;;
840;SDS011;406;48.566;13.450;2023-12-28T05:20:13;52.00;;;11.10;;
840;SDS011;406;48.566;13.450;2023-12-28T05:22:39;52.00;;;11.55;;
840;SDS011;406;48.566;13.450;2023-12-28T05:25:06;74.68;;;12.65;;
840;SDS011;406;48.566;13.450;2023-12-28T05:27:33;81.15;;;14.60;;
840;SDS011;406;48.566;13.450;2023-12-28T05:30:00;22.27;;;9.07;;
840;SDS011;406;48.566;13.450;2023-12-28T05:32:26;93.67;;;17.13;;
840;SDS011;406;48.566;13.450;2023-12-28T05:34:53;92.03;;;13.52;;
840;SDS011;406;48.566;13.450;2023-12-28T05:37:19;71.38;;;12.50;;
840;SDS011;406;48.566;13.450;2023-12-28T05:39:46;71.97;;;13.68;;
840;SDS011;406;48.566;13.450;2023-12-28T05:42:12;70.55;;;12.20;;
840;SDS011;406;48.566;13.450;2023-12-28T05:44:39;31.83;;;8.50;;
840;SDS011;406;48.566;13.450;2023-12-28T05:47:05;52.53;;;12.70;;
840;SDS011;406;48.566;13.450;2023-12-28T05:49:32;79.97;;;15.77;;
840;SDS011;406;48.566;13.450;2023-12-28T05:51:59;81.53;;;17.10;;
840;SDS011;406;48.566;13.450;2023-12-28T05:54:26;73.97;;;10.50;;
840;SDS011;406;48.566;13.450;2023-12-28T05:56:52;75.57;;;11.07;;
840;SDS011;406;48.566;13.450;2023-12-28T05:59:19;38.22;;;9.32;;
840;SDS011;406;48.566;13.450;2023-12-28T06:01:47;35.88;;;8.70;;
840;SDS011;406;48.566;13.450;2023-12-28T06:04:14;38.43;;;9.97;;
840;SDS011;406;48.566;13.450;2023-12-28T06:06:41;29.60;;;9.63;;
840;SDS011;406;48.566;13.450;2023-12-28T06:09:08;42.90;;;9.48;;
840;SDS011;406;48.566;13.450;2023-12-28T06:11:35;71.85;;;10.85;;
840;SDS011;406;48.566;13.450;2023-12-28T06:14:01;32.75;;;9.35;;
840;SDS011;406;48.566;13.450;2023-12-28T06:16:28;101.05;;;16.98;;
840;SDS011;406;48.566;13.450;2023-12-28T06:18:58;91.20;;;18.50;;
840;SDS011;406;48.566;13.450;2023-12-28T06:21:26;42.53;;;10.60;;
840;SDS011;406;48.566;13.450;2023-12-28T06:23:54;57.17;;;11.70;;
840;SDS011;406;48.566;13.450;2023-12-28T06:26:21;33.80;;;9.48;;
840;SDS011;406;48.566;13.450;2023-12-28T06:28:48;125.80;;;21.23;;
840;SDS011;406;48.566;13.450;2023-12-28T06:31:14;102.40;;;14.07;;
840;SDS011;406;48.566;13.450;2023-12-28T06:33:41;175.88;;;23.50;;
840;SDS011;406;48.566;13.450;2023-12-28T06:36:08;181.35;;;21.48;;
840;SDS011;406;48.566;13.450;2023-12-28T06:38:35;137.80;;;17.03;;
840;SDS011;406;48.566;13.450;2023-12-28T06:41:01;79.63;;;12.55;;
840;SDS011;406;48.566;13.450;2023-12-28T06:43:28;74.40;;;13.00;;
840;SDS011;406;48.566;13.450;2023-12-28T06:45:54;154.10;;;15.70;;
840;SDS011;406;48.566;13.450;2023-12-28T06:48:21;166.55;;;18.55;;
840;SDS011;406;48.566;13.450;2023-12-28T06:50:48;197.65;;;30.33;;
840;SDS011;406;48.566;13.450;2023-12-28T06:53:14;84.63;;;15.13;;
840;SDS011;406;48.566;13.450;2023-12-28T06:55:41;51.17;;;12.10;;
840;SDS011;406;48.566;13.450;2023-12-28T06:58:07;87.55;;;17.83;;
840;SDS011;406;48.566;13.450;2023-12-28T07:00:34;67.78;;;12.68;;
840;SDS011;406;48.566;13.450;2023-12-28T07:03:01;107.88;;;18.80;;
840;SDS011;406;48.566;13.450;2023-12-28T07:05:27;154.48;;;25.63;;
840;SDS011;406;48.566;13.450;2023-12-28T07:07:54;57.63;;;11.90;;
840;SDS011;406;48.566;13.450;2023-12-28T07:10:21;80.75;;;13.98;;
840;SDS011;406;48.566;13.450;2023-12-28T07:12:47;79.10;;;13.73;;
840;SDS011;406;48.566;13.450;2023-12-28T07:15:14;43.13;;;9.30;;
840;SDS011;406;48.566;13.450;2023-12-28T07:17:41;80.80;;;11.82;;
840;SDS011;406;48.566;13.450;2023-12-28T07:20:08;74.85;;;15.15;;
840;SDS011;406;48.566;13.450;2023-12-28T07:22:37;47.00;;;10.93;;
840;SDS011;406;48.566;13.450;2023-12-28T07:25:07;52.97;;;13.65;;
840;SDS011;406;48.566;13.450;2023-12-28T07:27:34;31.75;;;9.93;;
840;SDS011;406;48.566;13.450;2023-12-28T07:30:01;54.93;;;11.13;;
840;SDS011;406;48.566;13.450;2023-12-28T07:32:31;63.47;;;11.57;;
840;SDS011;406;48.566;13.450;2023-12-28T07:34:57;48.83;;;10.98;;
840;SDS011;406;48.566;13.450;2023-12-28T07:37:25;48.92;;;10.63;;
840;SDS011;406;48.566;13.450;2023-12-28T07:39:52;56.50;;;11.60;;
840;SDS011;406;48.566;13.450;2023-12-28T07:42:19;34.80;;;9.02;;
840;SDS011;406;48.566;13.450;2023-12-28T07:44:46;94.65;;;13.55;;
840;SDS011;406;48.566;13.450;2023-12-28T07:47:12;15.70;;;6.70;;
840;SDS011;406;48.566;13.450;2023-12-28T07:49:39;75.45;;;11.13;;
840;SDS011;406;48.566;13.450;2023-12-28T07:52:07;39.53;;;9.93;;
840;SDS011;406;48.566;13.450;2023-12-28T07:54:33;46.03;;;11.30;;
840;SDS011;406;48.566;13.450;2023-12-28T07:57:00;28.85;;;9.43;;
840;SDS011;406;48.566;13.450;2023-12-28T07:59:26;38.63;;;9.57;;
840;SDS011;406;48.566;13.450;2023-12-28T08:01:53;48.07;;;9.77;;
840;SDS011;406;48.566;13.450;2023-12-28T08:04:19;71.47;;;10.15;;
840;SDS011;406;48.566;13.450;2023-12-28T08:06:46;33.50;;;8.13;;
840;SDS011;406;48.566;13.450;2023-12-28T08:09:13;90.65;;;13.10;;
840;SDS011;406;48.566;13.450;2023-12-28T08:11:39;27.53;;;8.03;;
840;SDS011;406;48.566;13.450;2023-12-28T08:14:06;52.53;;;11.00;;
840;SDS011;406;48.566;13.450;2023-12-28T08:16:33;62.35;;;10.20;;
840;SDS011;406;48.566;13.450;2023-12-28T08:19:01;76.50;;;11.53;;
840;SDS011;406;48.566;13.450;2023-12-28T08:21:28;88.47;;;14.33;;
840;SDS011;406;48.566;13.450;2023-12-28T08:23:54;72.00;;;11.43;;
840;SDS011;406;48.566;13.450;2023-12-28T08:26:21;103.33;;;14.73;;
840;SDS011;406;48.566;13.450;2023-12-28T08:28:47;85.78;;;13.15;;
840;SDS011;406;48.566;13.450;2023-12-28T08:31:14;91.85;;;12.45;;
840;SDS011;406;48.566;13.450;2023-12-28T08:33:41;56.60;;;11.70;;
840;SDS011;406;48.566;13.450;2023-12-28T08:36:08;99.10;;;15.38;;
840;SDS011;406;48.566;13.450;2023-12-28T08:38:35;59.08;;;12.32;;
840;SDS011;406;48.566;13.450;2023-12-28T08:41:02;83.10;;;13.05;;
840;SDS011;406;48.566;13.450;2023-12-28T08:43:29;41.13;;;8.48;;
840;SDS011;406;48.566;13.450;2023-12-28T08:45:56;60.13;;;11.05;;
840;SDS011;406;48.566;13.450;2023-12-28T08:48:23;62.83;;;11.70;;
840;SDS011;406;48.566;13.450;2023-12-28T08:50:50;164.75;;;18.75;;
840;SDS011;406;48.566;13.450;2023-12-28T08:53:17;68.15;;;12.32;;
840;SDS011;406;48.566;13.450;2023-12-28T08:55:43;80.32;;;12.93;;
840;SDS011;406;48.566;13.450;2023-12-28T08:58:10;31.45;;;8.23;;
840;SDS011;406;48.566;13.450;2023-12-28T09:00:36;47.17;;;9.90;;
840;SDS011;406;48.566;13.450;2023-12-28T09:03:03;15.98;;;7.80;;
840;SDS011;406;48.566;13.450;2023-12-28T09:05:30;15.48;;;6.95;;
840;SDS011;406;48.566;13.450;2023-12-28T09:07:57;16.17;;;7.90;;
840;SDS011;406;48.566;13.450;2023-12-28T09:10:24;15.52;;;7.35;;
840;SDS011;406;48.566;13.450;2023-12-28T09:12:51;15.32;;;7.30;;
840;SDS011;406;48.566;13.450;2023-12-28T09:15:17;13.77;;;7.40;;
840;SDS011;406;48.566;13.450;2023-12-28T09:17:44;7.53;;;6.18;;
840;SDS011;406;48.566;13.450;2023-12-28T09:20:11;11.43;;;6.53;;
840;SDS011;406;48.566;13.450;2023-12-28T09:22:38;10.65;;;6.53;;
840;SDS011;406;48.566;13.450;2023-12-28T09:25:05;22.57;;;7.70;;
840;SDS011;406;48.566;13.450;2023-12-28T09:27:32;16.83;;;8.30;;
840;SDS011;406;48.566;13.450;2023-12-28T09:29:58;12.60;;;7.00;;
840;SDS011;406;48.566;13.450;2023-12-28T09:32:25;17.53;;;6.87;;
840;SDS011;406;48.566;13.450;2023-12-28T09:34:51;16.53;;;6.47;;
840;SDS011;406;48.566;13.450;2023-12-28T09:37:18;24.13;;;9.07;;
840;SDS011;406;48.566;13.450;2023-12-28T09:39:44;12.23;;;7.13;;
840;SDS011;406;48.566;13.450;2023-12-28T09:42:16;16.50;;;6.90;;
840;SDS011;406;48.566;13.450;2023-12-28T09:44:44;16.93;;;7.20;;
840;SDS011;406;48.566;13.450;2023-12-28T09:47:10;11.40;;;7.60;;
840;SDS011;406;48.566;13.450;2023-12-28T09:49:39;14.93;;;8.43;;
840;SDS011;406;48.566;13.450;2023-12-28T09:52:07;39.37;;;10.50;;
840;SDS011;406;48.566;13.450;2023-12-28T09:54:34;15.20;;;8.17;;
840;SDS011;406;48.566;13.450;2023-12-28T09:57:01;19.53;;;8.60;;
840;SDS011;406;48.566;13.450;2023-12-28T09:59:28;16.03;;;8.30;;
840;SDS011;406;48.566;13.450;2023-12-28T10:01:54;9.63;;;7.60;;
840;SDS011;406;48.566;13.450;2023-12-28T10:04:21;8.27;;;7.13;;
840;SDS011;406;48.566;13.450;2023-12-28T10:06:48;8.80;;;7.43;;
840;SDS011;406;48.566;13.450;2023-12-28T10:09:14;9.27;;;6.80;;
840;SDS011;406;48.566;13.450;2023-12-28T10:11:41;10.33;;;7.33;;
840;SDS011;406;48.566;13.450;2023-12-28T10:14:08;10.90;;;6.87;;
840;SDS011;406;48.566;13.450;2023-12-28T10:16:35;15.27;;;7.77;;
840;SDS011;406;48.566;13.450;2023-12-28T10:19:02;6.18;;;5.53;;
840;SDS011;406;48.566;13.450;2023-12-28T10:21:30;7.23;;;6.27;;
840;SDS011;406;48.566;13.450;2023-12-28T10:23:58;9.47;;;6.33;;
840;SDS011;406;48.566;13.450;2023-12-28T10:26:24;8.43;;;7.00;;
840;SDS011;406;48.566;13.450;2023-12-28T10:28:56;7.40;;;6.70;;
840;SDS011;406;48.566;13.450;2023-12-28T10:31:24;7.63;;;6.47;;
840;SDS011;406;48.566;13.450;2023-12-28T10:33:51;7.27;;;6.50;;
840;SDS011;406;48.566;13.450;2023-12-28T10:36:18;9.33;;;7.70;;
840;SDS011;406;48.566;13.450;2023-12-28T10:38:46;9.07;;;7.23;;
840;SDS011;406;48.566;13.450;2023-12-28T10:41:13;7.77;;;6.50;;
840;SDS011;406;48.566;13.450;2023-12-28T10:46:40;7.63;;;6.63;;
840;SDS011;406;48.566;13.450;2023-12-28T10:49:10;6.73;;;6.07;;
840;SDS011;406;48.566;13.450;2023-12-28T10:51:40;6.77;;;6.07;;
840;SDS011;406;48.566;13.450;2023-12-28T10:59:55;7.87;;;7.00;;
840;SDS011;406;48.566;13.450;2023-12-28T11:02:36;7.03;;;5.83;;
840;SDS011;406;48.566;13.450;2023-12-28T11:05:06;7.10;;;6.40;;
840;SDS011;406;48.566;13.450;2023-12-28T11:07:33;7.70;;;6.37;;
840;SDS011;406;48.566;13.450;2023-12-28T11:10:02;7.50;;;6.70;;
840;SDS011;406;48.566;13.450;2023-12-28T11:12:31;7.70;;;6.93;;
840;SDS011;406;48.566;13.450;2023-12-28T11:14:58;7.47;;;6.60;;
840;SDS011;406;48.566;13.450;2023-12-28T11:17:25;6.97;;;6.27;;
840;SDS011;406;48.566;13.450;2023-12-28T11:19:53;9.30;;;6.00;;
840;SDS011;406;48.566;13.450;2023-12-28T11:22:21;6.50;;;5.90;;
840;SDS011;406;48.566;13.450;2023-12-28T11:24:48;7.40;;;6.20;;
840;SDS011;406;48.566;13.450;2023-12-28T11:27:15;6.97;;;6.27;;
840;SDS011;406;48.566;13.450;2023-12-28T11:29:43;6.20;;;5.60;;
840;SDS011;406;48.566;13.450;2023-12-28T11:32:11;6.53;;;5.83;;
840;SDS011;406;48.566;13.450;2023-12-28T11:34:37;7.00;;;6.07;;
840;SDS011;406;48.566;13.450;2023-12-28T11:37:08;6.57;;;5.97;;
840;SDS011;406;48.566;13.450;2023-12-28T11:39:38;6.63;;;6.03;;
840;SDS011;406;48.566;13.450;2023-12-28T11:42:06;7.20;;;6.50;;
840;SDS011;406;48.566;13.450;2023-12-28T11:44:38;7.27;;;6.57;;
840;SDS011;406;48.566;13.450;2023-12-28T11:47:12;7.20;;;6.50;;
840;SDS011;406;48.566;13.450;2023-12-28T11:49:39;5.83;;;5.27;;
840;SDS011;406;48.566;13.450;2023-12-28T11:52:07;5.80;;;5.30;;
840;SDS011;406;48.566;13.450;2023-12-28T11:54:35;7.23;;;6.37;;
840;SDS011;406;48.566;13.450;2023-12-28T11:57:01;8.03;;;6.60;;
840;SDS011;406;48.566;13.450;2023-12-28T11:59:28;8.80;;;5.80;;
840;SDS011;406;48.566;13.450;2023-12-28T12:01:54;7.13;;;5.73;;
840;SDS011;406;48.566;13.450;2023-12-28T12:04:21;7.30;;;5.90;;
840;SDS011;406;48.566;13.450;2023-12-28T12:06:48;6.90;;;6.30;;
840;SDS011;406;48.566;13.450;2023-12-28T12:09:14;8.30;;;5.80;;
840;SDS011;406;48.566;13.450;2023-12-28T12:11:41;6.70;;;6.00;;
840;SDS011;406;48.566;13.450;2023-12-28T12:14:11;6.70;;;6.00;;
840;SDS011;406;48.566;13.450;2023-12-28T12:16:38;6.00;;;5.40;;
840;SDS011;406;48.566;13.450;2023-12-28T12:19:04;6.63;;;5.93;;
840;SDS011;406;48.566;13.450;2023-12-28T12:21:35;11.93;;;7.23;;
840;SDS011;406;48.566;13.450;2023-12-28T12:24:02;9.50;;;6.40;;
840;SDS011;406;48.566;13.450;2023-12-28T12:26:28;7.13;;;6.43;;
840;SDS011;406;48.566;13.450;2023-12-28T12:28:56;7.70;;;6.40;;
840;SDS011;406;48.566;13.450;2023-12-28T12:31:24;7.17;;;6.43;;
840;SDS011;406;48.566;13.450;2023-12-28T12:33:51;7.30;;;6.60;;
840;SDS011;406;48.566;13.450;2023-12-28T12:36:18;7.60;;;6.00;;
840;SDS011;406;48.566;13.450;2023-12-28T12:38:45;6.97;;;6.30;;
840;SDS011;406;48.566;13.450;2023-12-28T12:41:11;6.70;;;6.10;;
840;SDS011;406;48.566;13.450;2023-12-28T12:43:38;8.00;;;6.27;;
840;SDS011;406;48.566;13.450;2023-12-28T12:46:07;6.60;;;6.00;;
840;SDS011;406;48.566;13.450;2023-12-28T12:48:33;6.20;;;5.60;;
840;SDS011;406;48.566;13.450;2023-12-28T12:51:02;7.00;;;6.40;;
840;SDS011;406;48.566;13.450;2023-12-28T12:53:33;5.90;;;5.40;;
840;SDS011;406;48.566;13.450;2023-12-28T12:56:00;6.87;;;6.17;;
840;SDS011;406;48.566;13.450;2023-12-28T12:58:29;7.23;;;6.50;;
840;SDS011;406;48.566;13.450;2023-12-28T13:00:59;6.10;;;5.50;;
840;SDS011;406;48.566;13.450;2023-12-28T13:03:28;6.53;;;5.67;;
840;SDS011;406;48.566;13.450;2023-12-28T13:05:56;6.70;;;5.50;;
840;SDS011;406;48.566;13.450;2023-12-28T13:08:23;6.23;;;5.63;;
840;SDS011;406;48.566;13.450;2023-12-28T13:10:50;6.23;;;5.63;;
840;SDS011;406;48.566;13.450;2023-12-28T13:13:16;7.03;;;6.33;;
840;SDS011;406;48.566;13.450;2023-12-28T13:15:43;7.83;;;6.57;;
840;SDS011;406;48.566;13.450;2023-12-28T13:18:10;7.23;;;6.43;;
840;SDS011;406;48.566;13.450;2023-12-28T13:20:36;7.20;;;6.50;;
840;SDS011;406;48.566;13.450;2023-12-28T13:23:03;7.00;;;6.40;;
840;SDS011;406;48.566;13.450;2023-12-28T13:25:33;6.40;;;5.80;;
840;SDS011;406;48.566;13.450;2023-12-28T13:28:00;7.03;;;5.90;;
840;SDS011;406;48.566;13.450;2023-12-28T13:30:26;6.63;;;5.73;;
840;SDS011;406;48.566;13.450;2023-12-28T13:32:55;6.20;;;5.43;;
840;SDS011;406;48.566;13.450;2023-12-28T13:35:25;6.30;;;5.70;;
840;SDS011;406;48.566;13.450;2023-12-28T13:37:52;6.73;;;6.03;;
840;SDS011;406;48.566;13.450;2023-12-28T13:40:18;7.20;;;6.50;;
840;SDS011;406;48.566;13.450;2023-12-28T13:42:46;6.90;;;5.50;;
840;SDS011;406;48.566;13.450;2023-12-28T13:45:13;6.77;;;6.17;;
840;SDS011;406;48.566;13.450;2023-12-28T13:47:39;6.30;;;5.70;;
840;SDS011;406;48.566;13.450;2023-12-28T13:50:06;7.63;;;5.70;;
840;SDS011;406;48.566;13.450;2023-12-28T13:52:33;6.40;;;5.80;;
840;SDS011;406;48.566;13.450;2023-12-28T13:54:59;6.03;;;5.30;;
840;SDS011;406;48.566;13.450;2023-12-28T13:57:26;6.93;;;6.23;;
840;SDS011;406;48.566;13.450;2023-12-28T13:59:52;6.43;;;5.80;;
840;SDS011;406;48.566;13.450;2023-12-28T14:02:22;7.40;;;6.70;;
840;SDS011;406;48.566;13.450;2023-12-28T14:04:50;7.23;;;6.57;;
840;SDS011;406;48.566;13.450;2023-12-28T14:07:17;9.30;;;6.23;;
840;SDS011;406;48.566;13.450;2023-12-28T14:09:44;8.03;;;6.60;;
840;SDS011;406;48.566;13.450;2023-12-28T14:12:10;7.20;;;6.00;;
840;SDS011;406;48.566;13.450;2023-12-28T14:14:37;7.50;;;6.10;;
840;SDS011;406;48.566;13.450;2023-12-28T14:17:03;5.87;;;5.27;;
840;SDS011;406;48.566;13.450;2023-12-28T14:19:31;6.20;;;5.67;;
840;SDS011;406;48.566;13.450;2023-12-28T14:21:58;6.20;;;5.40;;
840;SDS011;406;48.566;13.450;2023-12-28T14:24:26;5.13;;;4.63;;
840;SDS011;406;48.566;13.450;2023-12-28T14:26:53;8.67;;;5.87;;
840;SDS011;406;48.566;13.450;2023-12-28T14:29:21;5.87;;;5.27;;
840;SDS011;406;48.566;13.450;2023-12-28T14:31:48;10.00;;;6.30;;
840;SDS011;406;48.566;13.450;2023-12-28T14:34:15;5.17;;;4.33;;
840;SDS011;406;48.566;13.450;2023-12-28T14:36:43;6.00;;;5.40;;
840;SDS011;406;48.566;13.450;2023-12-28T14:39:15;7.57;;;6.47;;
840;SDS011;406;48.566;13.450;2023-12-28T14:41:46;6.20;;;5.60;;
840;SDS011;406;48.566;13.450;2023-12-28T14:44:12;6.10;;;5.60;;
840;SDS011;406;48.566;13.450;2023-12-28T14:46:39;8.33;;;6.40;;
840;SDS011;406;48.566;13.450;2023-12-28T14:49:06;7.10;;;6.30;;
840;SDS011;406;48.566;13.450;2023-12-28T14:51:32;6.20;;;5.20;;
840;SDS011;406;48.566;13.450;2023-12-28T14:53:59;7.27;;;6.13;;
840;SDS011;406;48.566;13.450;2023-12-28T14:56:25;6.10;;;5.53;;
840;SDS011;406;48.566;13.450;2023-12-28T14:58:58;7.47;;;5.97;;
840;SDS011;406;48.566;13.450;2023-12-28T15:01:24;7.20;;;6.23;;
840;SDS011;406;48.566;13.450;2023-12-28T15:03:51;6.23;;;5.63;;
840;SDS011;406;48.566;13.450;2023-12-28T15:06:18;6.63;;;6.03;;
840;SDS011;406;48.566;13.450;2023-12-28T15:08:44;7.00;;;6.30;;
840;SDS011;406;48.566;13.450;2023-12-28T15:11:11;8.40;;;6.73;;
840;SDS011;406;48.566;13.450;2023-12-28T15:13:38;7.30;;;6.60;;
840;SDS011;406;48.566;13.450;2023-12-28T15:16:05;6.93;;;6.10;;
840;SDS011;406;48.566;13.450;2023-12-28T15:18:32;7.33;;;6.60;;
840;SDS011;406;48.566;13.450;2023-12-28T15:20:59;7.03;;;6.43;;